createdAt,value
2022-07-27T00:00:48.822Z,48.59
2022-07-27T00:03:50.156Z,48.47
2022-07-27T00:16:41.011Z,49.01
2022-07-27T00:19:26.328Z,48.17
2022-07-27T00:22:25.550Z,48.46
2022-07-27T00:25:07.983Z,48.50
2022-07-27T00:28:00.837Z,48.33
2022-07-27T00:30:43.548Z,49.68
2022-07-27T00:33:44.911Z,50.21
2022-07-27T00:36:28.180Z,50.38
2022-07-27T00:39:23.289Z,50.47
2022-07-27T00:42:07.898Z,50.96
2022-07-27T00:51:22.237Z,51.31
2022-07-27T00:54:19.883Z,51.69
2022-07-27T00:57:03.091Z,50.75
2022-07-27T00:59:53.894Z,51.11
2022-07-27T01:02:36.421Z,50.82
2022-07-27T01:05:16.704Z,51.15
2022-07-27T01:07:58.990Z,51.08
2022-07-27T01:10:53.352Z,51.89
2022-07-27T01:13:36.121Z,52.15
2022-07-27T01:16:19.259Z,52.31
2022-07-27T01:28:49.822Z,51.97
2022-07-27T01:38:07.797Z,51.64
2022-07-27T01:41:13.094Z,51.49
2022-07-27T01:43:56.962Z,50.70
2022-07-27T01:46:55.754Z,50.99
2022-07-27T01:49:37.212Z,51.37
2022-07-27T01:52:30.951Z,51.03
2022-07-27T01:55:14.095Z,51.60
2022-07-27T01:58:00.873Z,52.06
2022-07-27T02:00:58.378Z,52.08
2022-07-27T02:03:39.977Z,52.79
2022-07-27T02:06:35.342Z,52.59
2022-07-27T02:09:17.887Z,52.97
2022-07-27T02:12:35.673Z,53.63
2022-07-27T02:15:21.769Z,54.08
2022-07-27T02:37:21.689Z,54.99
2022-07-27T02:40:04.474Z,54.88
2022-07-27T02:42:47.505Z,54.47
2022-07-27T02:45:29.703Z,54.97
2022-07-27T02:58:12.826Z,54.82
2022-07-27T03:00:58.771Z,56.09
2022-07-27T03:03:44.017Z,55.35
2022-07-27T03:12:54.678Z,56.29
2022-07-27T03:15:53.517Z,56.69
2022-07-27T03:18:54.850Z,55.83
2022-07-27T03:34:27.679Z,55.91
2022-07-27T03:37:11.976Z,59.04
2022-07-27T03:58:36.649Z,57.60
2022-07-27T04:01:18.932Z,56.16
2022-07-27T04:07:28.983Z,55.71
2022-07-27T04:10:12.238Z,55.18
2022-07-27T04:22:43.038Z,53.68
2022-07-27T04:25:35.746Z,53.49
2022-07-27T04:28:21.667Z,53.95
2022-07-27T04:31:03.816Z,53.16
2022-07-27T04:33:46.017Z,53.07
2022-07-27T04:36:33.182Z,52.68
2022-07-27T04:39:35.712Z,52.61
2022-07-27T04:42:18.437Z,52.43
2022-07-27T04:45:14.754Z,52.41
2022-07-27T04:48:08.599Z,52.12
2022-07-27T04:50:50.625Z,51.81
2022-07-27T04:53:53.777Z,51.93
2022-07-27T04:56:36.354Z,52.19
2022-07-27T04:59:42.946Z,52.92
2022-07-27T05:02:41.920Z,52.44
2022-07-27T05:11:38.651Z,51.42
2022-07-27T05:17:35.439Z,51.01
2022-07-27T05:21:52.118Z,49.90
2022-07-27T05:28:54.601Z,49.52
2022-07-27T05:31:32.201Z,49.08
2022-07-27T05:34:20.943Z,48.67
2022-07-27T05:36:52.101Z,48.50
2022-07-27T05:42:12.348Z,48.23
2022-07-27T05:44:44.952Z,47.76
2022-07-27T05:47:18.718Z,47.47
2022-07-27T05:49:52.106Z,47.09
2022-07-27T05:52:26.931Z,46.88
2022-07-27T05:55:27.933Z,46.59
2022-07-27T05:58:24.626Z,46.02
2022-07-27T06:01:20.285Z,45.42
2022-07-27T06:04:04.027Z,45.32
2022-07-27T06:10:59.111Z,44.51
2022-07-27T06:20:43.942Z,40.88
2022-07-27T06:23:28.784Z,40.05
2022-07-27T06:26:19.591Z,39.71
2022-07-27T06:28:48.050Z,39.32
2022-07-27T06:31:16.460Z,38.81
2022-07-27T06:33:48.297Z,38.41
2022-07-27T06:36:23.936Z,38.01
2022-07-27T06:38:52.731Z,37.92
2022-07-27T06:41:22.654Z,37.51
2022-07-27T06:43:53.261Z,36.07
2022-07-27T06:46:43.965Z,35.79
2022-07-27T06:49:12.326Z,35.63
2022-07-27T06:51:59.092Z,34.84
2022-07-27T07:05:02.703Z,31.90
2022-07-27T07:07:34.149Z,31.60
2022-07-27T07:10:04.857Z,31.07
2022-07-27T07:12:34.568Z,30.68
2022-07-27T07:15:06.698Z,30.67
2022-07-27T07:17:37.438Z,30.55
2022-07-27T07:20:07.128Z,30.20
2022-07-27T07:22:35.458Z,30.21
2022-07-27T07:25:06.960Z,29.56
2022-07-27T07:27:46.108Z,29.57
2022-07-27T07:30:15.891Z,29.17
2022-07-27T07:32:45.933Z,29.14
2022-07-27T07:35:14.005Z,29.03
2022-07-27T07:37:43.366Z,28.65
2022-07-27T07:40:41.267Z,28.29
2022-07-27T07:43:02.803Z,28.56
2022-07-27T07:45:33.083Z,28.20
2022-07-27T07:48:02.087Z,28.57
2022-07-27T07:50:29.981Z,28.67
2022-07-27T07:52:59.896Z,28.87
2022-07-27T07:55:30.315Z,28.72
2022-07-27T07:58:00.159Z,28.06
2022-07-27T08:00:32.560Z,27.88
2022-07-27T08:03:02.381Z,27.86
2022-07-27T08:05:33.055Z,27.74
2022-07-27T08:08:07.223Z,27.86
2022-07-27T08:10:40.207Z,27.46
2022-07-27T08:13:09.978Z,27.05
2022-07-27T08:15:38.719Z,26.89
2022-07-27T08:18:07.723Z,26.58
2022-07-27T08:20:41.697Z,26.29
2022-07-27T08:23:13.295Z,25.42
2022-07-27T08:25:42.901Z,24.94
2022-07-27T08:28:11.628Z,25.15
2022-07-27T08:30:43.207Z,24.93
2022-07-27T08:33:40.984Z,24.89
2022-07-27T08:36:10.339Z,23.55
2022-07-27T08:38:38.649Z,24.12
2022-07-27T08:41:09.104Z,24.02
2022-07-27T08:43:39.988Z,24.34
2022-07-27T08:46:10.602Z,24.15
2022-07-27T08:48:40.066Z,24.14
2022-07-27T08:51:08.037Z,23.54
2022-07-27T08:53:53.515Z,23.01
2022-07-27T08:56:22.986Z,23.12
2022-07-27T08:58:52.280Z,23.12
2022-07-27T09:01:25.417Z,23.23
2022-07-27T09:03:56.491Z,22.73
2022-07-27T09:06:53.129Z,22.52
2022-07-27T09:09:23.582Z,22.96
2022-07-27T09:12:11.576Z,22.60
2022-07-27T09:14:42.063Z,21.70
2022-07-27T09:20:17.752Z,21.54
2022-07-27T09:22:51.100Z,21.19
2022-07-27T09:28:30.529Z,21.10
2022-07-27T09:31:13.620Z,20.99
2022-07-27T09:33:54.361Z,20.74
2022-07-27T09:36:26.430Z,20.52
2022-07-27T09:39:07.174Z,20.35
2022-07-27T09:41:46.244Z,20.27
2022-07-27T09:44:34.868Z,20.08
2022-07-27T09:47:28.349Z,19.78
2022-07-27T09:50:18.952Z,19.69
2022-07-27T09:52:50.216Z,19.69
2022-07-27T09:55:21.920Z,19.40
2022-07-27T09:57:56.526Z,19.94
2022-07-27T10:00:27.512Z,19.96
2022-07-27T10:02:57.555Z,19.72
2022-07-27T10:05:27.767Z,19.59
2022-07-27T10:08:00.457Z,19.39
2022-07-27T10:10:29.530Z,18.96
2022-07-27T10:12:58.980Z,18.61
2022-07-27T10:15:30.287Z,18.62
2022-07-27T10:18:09.454Z,19.09
2022-07-27T10:20:38.776Z,18.47
2022-07-27T10:23:07.421Z,19.07
2022-07-27T10:25:38.033Z,18.76
2022-07-27T10:28:20.390Z,18.95
2022-07-27T10:30:53.880Z,18.44
2022-07-27T10:33:43.228Z,18.20
2022-07-27T10:36:44.031Z,17.94
2022-07-27T10:39:12.536Z,17.70
2022-07-27T10:41:42.239Z,17.45
2022-07-27T10:44:21.512Z,17.66
2022-07-27T10:46:56.644Z,17.37
2022-07-27T10:49:28.401Z,17.33
2022-07-27T10:51:58.473Z,17.23
2022-07-27T10:54:40.363Z,17.00
2022-07-27T10:57:09.608Z,17.25
2022-07-27T11:00:07.543Z,17.13
2022-07-27T11:02:41.832Z,16.90
2022-07-27T11:05:37.858Z,16.55
2022-07-27T11:10:49.587Z,16.54
2022-07-27T11:13:19.985Z,16.39
2022-07-27T11:15:56.010Z,16.33
2022-07-27T11:18:32.995Z,16.27
2022-07-27T11:21:21.899Z,16.47
2022-07-27T11:23:55.687Z,16.53
2022-07-27T11:26:26.347Z,16.31
2022-07-27T11:28:55.957Z,15.70
2022-07-27T11:31:52.845Z,15.55
2022-07-27T11:34:18.019Z,15.34
2022-07-27T11:36:51.832Z,15.42
2022-07-27T11:39:58.817Z,15.11
2022-07-27T11:42:21.669Z,15.41
2022-07-27T11:44:55.117Z,15.35
2022-07-27T11:47:24.906Z,15.80
2022-07-27T11:49:53.491Z,15.69
2022-07-27T11:55:54.458Z,16.34
2022-07-27T11:58:26.372Z,16.68
2022-07-27T12:00:55.366Z,16.83
2022-07-27T12:03:46.684Z,16.71
2022-07-27T12:06:15.194Z,16.63
2022-07-27T12:08:45.155Z,16.37
2022-07-27T12:11:16.862Z,16.75
2022-07-27T12:13:45.982Z,16.94
2022-07-27T12:16:19.021Z,16.83
2022-07-27T12:18:47.586Z,16.87
2022-07-27T12:21:20.659Z,16.76
2022-07-27T12:23:52.775Z,16.87
2022-07-27T12:26:25.596Z,16.59
2022-07-27T12:29:10.307Z,16.16
2022-07-27T12:31:50.853Z,16.21
2022-07-27T12:34:19.545Z,16.19
2022-07-27T12:36:48.392Z,15.87
2022-07-27T12:39:35.231Z,15.64
2022-07-27T12:42:06.983Z,15.63
2022-07-27T12:44:37.199Z,15.50
2022-07-27T12:47:27.941Z,15.51
2022-07-27T12:50:00.578Z,15.46
2022-07-27T12:52:28.548Z,15.63
2022-07-27T12:54:58.492Z,15.66
2022-07-27T12:57:46.615Z,15.44
2022-07-27T13:00:18.159Z,15.47
2022-07-27T13:02:46.633Z,15.44
2022-07-27T13:05:16.695Z,15.26
2022-07-27T13:07:48.010Z,14.93
2022-07-27T13:10:21.554Z,15.16
2022-07-27T13:12:51.216Z,15.12
2022-07-27T13:15:19.982Z,15.29
2022-07-27T13:17:50.463Z,15.03
2022-07-27T13:20:19.161Z,15.07
2022-07-27T13:22:50.305Z,14.91
2022-07-27T13:25:22.045Z,14.85
2022-07-27T13:27:53.279Z,14.50
2022-07-27T13:30:25.143Z,14.80
2022-07-27T13:32:54.568Z,14.66
2022-07-27T13:35:23.313Z,14.96
2022-07-27T13:37:52.318Z,14.35
2022-07-27T13:40:22.884Z,14.33
2022-07-27T13:42:56.837Z,14.33
2022-07-27T13:45:24.895Z,14.33
2022-07-27T13:47:54.881Z,14.13
2022-07-27T13:50:24.307Z,14.14
2022-07-27T13:52:56.500Z,14.16
2022-07-27T13:55:28.285Z,13.97
2022-07-27T13:58:02.678Z,13.99
2022-07-27T14:00:30.618Z,14.21
2022-07-27T14:02:59.245Z,13.88
2022-07-27T14:05:30.504Z,13.77
2022-07-27T14:08:00.180Z,13.96
2022-07-27T14:10:40.133Z,14.25
2022-07-27T14:13:14.161Z,14.20
2022-07-27T14:15:50.776Z,14.20
2022-07-27T14:18:28.234Z,14.04
2022-07-27T14:20:58.406Z,13.80
2022-07-27T14:23:27.606Z,13.60
2022-07-27T14:25:56.302Z,14.07
2022-07-27T14:28:25.517Z,13.77
2022-07-27T14:30:55.377Z,13.98
2022-07-27T14:33:29.909Z,14.00
2022-07-27T14:36:07.214Z,13.81
2022-07-27T14:38:37.072Z,13.49
2022-07-27T14:41:06.135Z,13.58
2022-07-27T14:43:34.744Z,14.05
2022-07-27T14:46:02.759Z,13.88
2022-07-27T14:49:03.248Z,13.60
2022-07-27T14:51:24.832Z,13.72
2022-07-27T14:54:05.178Z,13.67
2022-07-27T14:56:36.702Z,13.65
2022-07-27T14:59:05.505Z,13.60
2022-07-27T15:01:33.682Z,13.71
2022-07-27T15:04:01.971Z,13.85
2022-07-27T15:06:38.753Z,13.82
2022-07-27T15:09:07.902Z,13.84
2022-07-27T15:11:38.005Z,14.20
2022-07-27T15:14:06.983Z,13.93
2022-07-27T15:16:35.346Z,14.02
2022-07-27T15:19:04.643Z,13.85
2022-07-27T15:21:33.102Z,13.89
2022-07-27T15:24:01.730Z,14.02
2022-07-27T15:26:30.140Z,13.98
2022-07-27T15:28:57.851Z,14.22
2022-07-27T15:31:26.443Z,14.50
2022-07-27T15:33:54.938Z,14.45
2022-07-27T15:36:32.442Z,14.72
2022-07-27T15:39:05.464Z,14.84
2022-07-27T15:41:34.730Z,15.05
2022-07-27T15:44:03.951Z,14.79
2022-07-27T15:46:32.734Z,14.71
2022-07-27T15:49:01.752Z,14.87
2022-07-27T15:51:30.373Z,15.06
2022-07-27T15:53:58.691Z,15.36
2022-07-27T15:56:27.188Z,15.33
2022-07-27T15:58:55.679Z,15.48
2022-07-27T16:01:23.956Z,15.60
2022-07-27T16:04:05.704Z,15.65
2022-07-27T16:06:39.158Z,15.96
2022-07-27T16:09:12.128Z,16.06
2022-07-27T16:11:41.047Z,16.28
2022-07-27T16:14:09.998Z,16.28
2022-07-27T16:16:37.669Z,16.62
2022-07-27T16:19:12.653Z,16.67
2022-07-27T16:21:54.224Z,16.72
2022-07-27T16:24:26.005Z,16.67
2022-07-27T16:26:54.814Z,16.65
2022-07-27T16:29:24.117Z,16.86
2022-07-27T16:31:58.059Z,16.84
2022-07-27T16:34:31.605Z,16.88
2022-07-27T16:37:01.036Z,16.84
2022-07-27T16:39:30.486Z,16.91
2022-07-27T16:41:59.024Z,16.96
2022-07-27T16:44:26.743Z,17.10
2022-07-27T16:46:56.094Z,17.03
2022-07-27T16:49:33.776Z,16.91
2022-07-27T16:52:06.178Z,16.94
2022-07-27T16:54:39.241Z,17.14
2022-07-27T16:57:10.700Z,17.22
2022-07-27T16:59:39.364Z,17.50
2022-07-27T17:02:07.518Z,17.38
2022-07-27T17:04:36.228Z,17.57
2022-07-27T17:07:04.405Z,17.74
2022-07-27T17:09:33.919Z,17.73
2022-07-27T17:12:02.920Z,17.99
2022-07-27T17:14:31.132Z,18.10
2022-07-27T17:16:59.963Z,18.40
2022-07-27T17:19:28.367Z,18.60
2022-07-27T17:21:57.145Z,20.39
2022-07-27T17:24:24.734Z,21.40
2022-07-27T17:26:52.805Z,22.23
2022-07-27T17:29:20.712Z,22.24
2022-07-27T17:31:48.850Z,22.14
2022-07-27T17:34:17.343Z,22.53
2022-07-27T17:36:46.721Z,22.58
2022-07-27T17:39:17.198Z,22.29
2022-07-27T17:41:45.696Z,22.35
2022-07-27T17:44:13.987Z,22.69
2022-07-27T17:46:42.338Z,22.80
2022-07-27T17:49:11.034Z,22.76
2022-07-27T17:51:39.384Z,22.95
2022-07-27T17:54:07.991Z,23.46
2022-07-27T17:56:36.997Z,23.51
2022-07-27T17:59:34.452Z,23.47
2022-07-27T18:01:56.796Z,23.43
2022-07-27T18:04:27.054Z,23.65
2022-07-27T18:06:54.744Z,23.83
2022-07-27T18:09:23.316Z,23.70
2022-07-27T18:11:52.941Z,23.84
2022-07-27T18:14:20.682Z,24.00
2022-07-27T18:16:51.500Z,24.08
2022-07-27T18:19:19.391Z,24.06
2022-07-27T18:21:47.439Z,24.24
2022-07-27T18:24:19.585Z,24.37
2022-07-27T18:26:49.479Z,24.46
2022-07-27T18:29:20.281Z,24.55
2022-07-27T18:31:48.737Z,24.60
2022-07-27T18:34:17.515Z,24.71
2022-07-27T18:36:47.250Z,24.70
2022-07-27T18:39:16.413Z,24.82
2022-07-27T18:41:44.902Z,24.92
2022-07-27T18:44:13.128Z,25.35
2022-07-27T18:46:42.193Z,26.33
2022-07-27T18:49:14.044Z,26.36
2022-07-27T18:51:42.757Z,26.30
2022-07-27T18:54:11.283Z,26.41
2022-07-27T18:56:40.811Z,26.62
2022-07-27T18:59:09.872Z,27.01
2022-07-27T19:01:39.035Z,27.08
2022-07-27T19:04:08.157Z,27.32
2022-07-27T19:06:36.110Z,27.93
2022-07-27T19:09:05.051Z,27.81
2022-07-27T19:11:34.091Z,27.95
2022-07-27T19:14:02.221Z,27.89
2022-07-27T19:16:29.941Z,27.84
2022-07-27T19:19:00.187Z,28.11
2022-07-27T19:21:28.393Z,28.64
2022-07-27T19:23:56.630Z,28.73
2022-07-27T19:26:25.008Z,28.99
2022-07-27T19:28:52.760Z,29.23
2022-07-27T19:31:22.923Z,29.72
2022-07-27T19:33:53.047Z,29.98
2022-07-27T19:36:23.213Z,30.42
2022-07-27T19:38:52.616Z,30.62
2022-07-27T19:41:21.341Z,30.71
2022-07-27T19:43:49.935Z,31.92
2022-07-27T19:46:18.471Z,31.93
2022-07-27T19:48:46.366Z,33.07
2022-07-27T19:51:15.406Z,33.68
2022-07-27T19:53:44.814Z,34.15
2022-07-27T19:56:13.590Z,34.20
2022-07-27T19:58:42.092Z,34.33
2022-07-27T20:01:11.683Z,34.32
2022-07-27T20:03:52.161Z,34.23
2022-07-27T20:06:23.855Z,34.93
2022-07-27T20:08:56.170Z,35.00
2022-07-27T20:11:24.923Z,34.69
2022-07-27T20:13:54.261Z,34.71
2022-07-27T20:16:23.666Z,34.63
2022-07-27T20:18:53.937Z,35.19
2022-07-27T20:21:25.187Z,34.87
2022-07-27T20:23:58.387Z,35.01
2022-07-27T20:26:29.183Z,34.71
2022-07-27T20:29:00.351Z,34.64
2022-07-27T20:31:30.157Z,35.14
2022-07-27T20:33:58.787Z,36.65
2022-07-27T20:36:26.932Z,36.32
2022-07-27T20:38:59.198Z,36.24
2022-07-27T20:41:29.012Z,35.11
2022-07-27T20:43:58.674Z,35.14
2022-07-27T20:46:26.757Z,34.82
2022-07-27T20:48:54.468Z,34.54
2022-07-27T20:51:22.890Z,34.08
2022-07-27T20:53:50.896Z,33.58
2022-07-27T20:56:19.317Z,33.52
2022-07-27T20:58:48.530Z,33.76
2022-07-27T21:01:18.072Z,33.84
2022-07-27T21:03:45.897Z,33.31
2022-07-27T21:06:15.489Z,33.32
2022-07-27T21:08:46.596Z,33.00
2022-07-27T21:11:16.409Z,32.98
2022-07-27T21:13:44.787Z,33.28
2022-07-27T21:16:12.706Z,34.13
2022-07-27T21:18:41.688Z,33.48
2022-07-27T21:21:09.285Z,33.45
2022-07-27T21:23:56.612Z,33.28
2022-07-27T21:26:24.864Z,34.39
2022-07-27T21:28:53.005Z,33.89
2022-07-27T21:31:21.057Z,34.91
2022-07-27T21:33:49.932Z,36.69
2022-07-27T21:36:18.301Z,35.78
2022-07-27T21:38:46.606Z,36.17
2022-07-27T21:41:16.151Z,36.66
2022-07-27T21:43:44.858Z,37.31
2022-07-27T21:46:13.434Z,37.24
2022-07-27T21:48:43.120Z,38.53
2022-07-27T21:51:11.100Z,37.29
2022-07-27T21:53:39.833Z,37.31
2022-07-27T21:56:08.851Z,37.53
2022-07-27T21:58:36.948Z,36.62
2022-07-27T22:01:05.347Z,36.24
2022-07-27T22:03:37.287Z,36.12
2022-07-27T22:06:07.336Z,35.54
2022-07-27T22:08:36.886Z,35.09
2022-07-27T22:11:07.696Z,34.86
2022-07-27T22:13:40.456Z,34.49
2022-07-27T22:16:12.872Z,34.59
2022-07-27T22:18:43.354Z,35.44
2022-07-27T22:21:13.149Z,35.55
2022-07-27T22:23:43.691Z,35.64
2022-07-27T22:26:13.162Z,35.49
2022-07-27T22:28:42.591Z,35.29
2022-07-27T22:31:21.353Z,35.00
2022-07-27T22:33:54.439Z,34.96
2022-07-27T22:36:25.441Z,34.92
2022-07-27T22:38:57.199Z,34.52
2022-07-27T22:41:29.242Z,34.99
2022-07-27T22:44:00.531Z,34.51
2022-07-27T22:46:30.657Z,34.98
2022-07-27T22:49:00.500Z,34.98
2022-07-27T22:51:49.470Z,34.98
2022-07-27T22:54:26.961Z,34.72
2022-07-27T22:56:58.087Z,34.80
2022-07-27T22:59:31.438Z,34.56
2022-07-27T23:02:02.384Z,34.66
2022-07-27T23:04:32.048Z,34.40
2022-07-27T23:07:03.068Z,34.38
2022-07-27T23:09:33.523Z,34.23
2022-07-27T23:12:05.289Z,34.11
2022-07-27T23:14:35.629Z,33.70
2022-07-27T23:17:06.944Z,33.28
2022-07-27T23:19:36.803Z,33.70
2022-07-27T23:22:06.718Z,33.24
2022-07-27T23:24:41.100Z,33.64
2022-07-27T23:27:11.427Z,34.54
2022-07-27T23:29:40.382Z,34.40
2022-07-27T23:32:13.452Z,34.50
2022-07-27T23:34:44.406Z,34.39
2022-07-27T23:37:15.154Z,34.63
2022-07-27T23:39:47.685Z,35.21
2022-07-27T23:42:18.545Z,34.55
2022-07-27T23:44:48.354Z,34.47
2022-07-27T23:47:23.011Z,34.63
2022-07-27T23:49:51.089Z,35.37
2022-07-27T23:52:19.496Z,35.76
2022-07-27T23:54:48.789Z,35.88
2022-07-27T23:57:17.358Z,35.37
2022-07-27T23:59:45.178Z,34.74
